Edinburg, Pennsylvania
Current Conditions -  °F | °C
As of 12:34 PM on Thursday 27 Nov 2014 (Local Time) from KYNG Reporting Station
Light Snow Light Snow  
Wind Chill: 22°   Ceiling: 900
Heat Index: 31°   Visibility: 3mi
Dew Point: 28°   Wind: 10mph
Humidity: 89%   Direction: 300°WNW
Pressure: 30.08"   Gusts: NA
Location:  41.01°N, 80.44°W
Report Text: KYNG 271734Z 30009KT 3SM -SN BR BKN009 OVC017 M01/M02 A3008 RMK AO2 P0001 T10061022
Loading
Personal Weather Stations






























Interactive Weather Map New forecast layout! Learn more

10-Day Weather Forecast

Advertisements
Track Severe Weather on mobile